Time;durP1;ratioP1;P1;durP2;ratioP2;P2;SDS_P1;SDS_P2;PMS_P1;PMS_P2;Temp;Humidity;BMP_temperature;BMP_pressure;BME280_temperature;BME280_humidity;BME280_pressure;Samples;Min_cycle;Max_cycle;Signal;HPM_P1;HPM_P2
2021/12/24 00:00:35;;;;;;;10.90;5.20;;;;;;;-7.63;66.89;98314.70;102149;1317;75638;-19
2021/12/24 00:03:03;;;;;;;8.50;5.20;;;;;;;-7.89;67.80;98311.31;101630;1315;76427;-19
2021/12/24 00:05:32;;;;;;;11.20;6.60;;;;;;;-8.07;68.15;98306.09;102099;1318;74653;-19
2021/12/24 00:08:00;;;;;;;18.20;8.50;;;;;;;-8.21;68.98;98304.30;101920;1318;61873;-20
2021/12/24 00:10:31;;;;;;;16.90;8.30;;;;;;;-7.74;68.72;98299.06;102025;1320;61213;-20
2021/12/24 00:13:05;;;;;;;14.10;8.40;;;;;;;-6.93;66.15;98302.96;102069;1319;74911;-19
2021/12/24 00:37:20;;;;;;;12.00;5.10;;;;;;;-6.88;66.44;98265.55;102213;1319;61179;-20
2021/12/24 00:40:34;;;;;;;10.50;5.60;;;;;;;-6.68;64.67;98263.42;102255;1317;75408;-20
2021/12/24 00:42:45;;;;;;;9.00;5.10;;;;;;;-6.94;65.22;98259.45;101955;1315;76057;-20
2021/12/24 00:45:14;;;;;;;15.40;7.00;;;;;;;-7.25;65.98;98259.13;102017;1318;74926;-19
2021/12/24 00:47:43;;;;;;;8.80;5.60;;;;;;;-7.54;66.52;98254.00;101677;1315;62164;-19
2021/12/24 00:50:15;;;;;;;6.70;3.30;;;;;;;-7.82;67.56;98244.61;101901;1317;61184;-19
2021/12/24 00:55:18;;;;;;;8.40;4.90;;;;;;;-8.26;69.10;98220.70;102043;1319;73243;-19
2021/12/24 00:57:49;;;;;;;7.80;4.90;;;;;;;-8.20;69.67;98217.38;101903;1314;73604;-19
2021/12/24 01:00:23;;;;;;;9.50;4.90;;;;;;;-7.32;67.98;98216.08;101677;1316;61227;-20
2021/12/24 01:02:52;;;;;;;11.20;4.00;;;;;;;-6.79;65.76;98211.32;101879;1319;62116;-19
2021/12/24 01:05:23;;;;;;;8.80;5.20;;;;;;;-6.85;65.30;98209.79;101743;1316;75644;-19
2021/12/24 01:07:51;;;;;;;9.00;4.10;;;;;;;-7.13;65.84;98208.93;102103;1319;76242;-19
2021/12/24 01:10:25;;;;;;;9.00;4.80;;;;;;;-7.43;66.65;98202.49;102117;1315;74527;-19
2021/12/24 01:12:54;;;;;;;11.50;6.20;;;;;;;-7.71;67.34;98194.17;101733;1315;62152;-19
2021/12/24 01:15:22;;;;;;;11.80;5.90;;;;;;;-7.97;68.17;98189.64;101920;1317;61003;-20
2021/12/24 01:20:30;;;;;;;13.20;6.50;;;;;;;-8.35;69.60;98162.40;102272;1312;76439;-19
2021/12/24 01:23:59;;;;;;;13.80;4.10;;;;;;;-7.88;69.91;98148.16;102193;1319;74574;-19
2021/12/24 01:45:22;;;;;;;;;;;;;;;-8.30;70.02;98082.67;101640;1322;74718;-19
2021/12/24 01:48:08;;;;;;;7.70;4.00;;;;;;;-7.49;69.51;98075.82;101421;1323;75381;-20
2021/12/24 01:50:38;;;;;;;11.60;3.80;;;;;;;-6.84;66.37;98065.62;101436;1319;74327;-20
2021/12/24 01:53:07;;;;;;;11.00;4.20;;;;;;;-6.85;65.97;98059.05;101538;1325;61112;-19
2021/12/24 01:55:38;;;;;;;12.00;7.20;;;;;;;-7.06;66.04;98058.24;101717;1322;61091;-19
2021/12/24 01:58:07;;;;;;;8.90;5.40;;;;;;;-7.37;67.09;98054.29;101600;1319;74799;-20
2021/12/24 02:00:40;;;;;;;8.10;4.80;;;;;;;-7.67;67.93;98055.54;101651;1323;76261;-19
2021/12/24 02:03:10;;;;;;;7.50;4.30;;;;;;;-7.91;68.25;98054.20;101458;1323;73126;-19
2021/12/24 02:05:40;;;;;;;9.30;4.90;;;;;;;-8.08;69.18;98053.91;101150;1320;61341;-19
2021/12/24 02:08:11;;;;;;;9.90;5.00;;;;;;;-8.24;69.78;98045.00;101285;1325;62209;-19
2021/12/24 02:10:41;;;;;;;7.20;3.70;;;;;;;-8.06;70.36;98044.95;101182;1325;74408;-19
2021/12/24 02:13:10;;;;;;;8.30;4.00;;;;;;;-7.14;68.43;98044.10;101660;1320;76086;-19
2021/12/24 02:16:00;;;;;;;8.10;4.50;;;;;;;-6.70;66.27;98041.95;101345;1320;73477;-20
2021/12/24 02:29:30;;;;;;;10.80;7.10;;;;;;;-7.92;68.77;98028.61;102165;1314;74562;-19
2021/12/24 02:31:58;;;;;;;6.80;3.20;;;;;;;-8.07;69.20;98017.35;102106;1320;61879;-19
2021/12/24 02:34:26;;;;;;;10.70;5.30;;;;;;;-8.15;70.22;97998.82;102005;1313;61811;-19
2021/12/24 02:36:55;;;;;;;12.00;5.40;;;;;;;-7.57;69.78;97996.92;101959;1314;75672;-19
2021/12/24 02:39:24;;;;;;;9.60;5.60;;;;;;;-6.77;67.27;97984.23;101988;1314;74420;-20
2021/12/24 02:41:52;;;;;;;11.60;5.60;;;;;;;-6.61;66.05;97962.67;101980;1314;72726;-20
2021/12/24 02:44:21;;;;;;;10.70;6.10;;;;;;;-6.81;66.16;97958.36;102169;1313;61160;-20
2021/12/24 02:47:09;;;;;;;12.10;5.00;;;;;;;-7.09;67.02;97952.36;101950;1313;61226;-19
2021/12/24 02:55:12;;;;;;;7.40;4.50;;;;;;;-7.90;69.23;97916.02;101842;1317;72119;-19
2021/12/24 02:57:41;;;;;;;8.40;4.20;;;;;;;-8.03;69.96;97916.52;101815;1316;61475;-19
2021/12/24 03:00:19;;;;;;;10.60;6.00;;;;;;;-8.08;70.58;97925.39;101925;1314;61129;-19
2021/12/24 03:02:48;;;;;;;6.50;3.90;;;;;;;-7.24;69.63;97927.62;101956;1313;74157;-20
2021/12/24 03:05:18;;;;;;;5.40;3.70;;;;;;;-6.59;66.91;97923.27;101717;1317;74760;-19
2021/12/24 03:07:46;;;;;;;9.80;5.10;;;;;;;-6.49;65.92;97929.05;101702;1314;71844;-20
2021/12/24 03:10:19;;;;;;;9.30;4.50;;;;;;;-6.70;65.88;97919.20;101777;1314;61147;-19
2021/12/24 03:12:51;;;;;;;11.30;6.40;;;;;;;-7.00;66.67;97906.58;101632;1314;61256;-19
2021/12/24 03:15:22;;;;;;;17.60;5.60;;;;;;;-7.28;67.70;97901.61;101579;1313;72747;-20
2021/12/24 03:17:55;;;;;;;8.90;4.70;;;;;;;-7.49;68.42;97896.61;101839;1314;76186;-20
2021/12/24 03:20:24;;;;;;;9.10;5.00;;;;;;;-7.66;68.76;97877.66;101857;1314;73186;-20
2021/12/24 03:23:32;;;;;;;10.40;4.60;;;;;;;-7.83;69.63;97878.10;101956;1313;61855;-20
2021/12/24 03:25:59;;;;;;;9.40;4.70;;;;;;;-7.97;70.27;97874.25;101785;1313;61183;-20
2021/12/24 03:28:28;;;;;;;8.30;4.80;;;;;;;-7.43;70.16;97867.77;101713;1314;74080;-20
2021/12/24 03:30:56;;;;;;;7.30;4.30;;;;;;;-6.51;67.56;97870.85;102052;1314;75202;-20
2021/12/24 03:33:24;;;;;;;8.40;4.20;;;;;;;-6.26;65.91;97873.95;101849;1313;74474;-19
2021/12/24 03:35:53;;;;;;;12.20;5.80;;;;;;;-6.43;65.61;97873.98;101855;1314;61118;-20
2021/12/24 03:38:21;;;;;;;9.70;5.20;;;;;;;-6.72;66.00;97869.28;102092;1312;62560;-20
2021/12/24 03:40:49;;;;;;;11.60;6.60;;;;;;;-6.99;67.20;97852.71;102122;1314;75407;-19
2021/12/24 03:43:17;;;;;;;8.80;3.60;;;;;;;-7.27;68.04;97844.41;101959;1314;75838;-19
2021/12/24 03:48:26;;;;;;;12.70;6.80;;;;;;;-7.60;69.19;97830.81;101984;1316;61117;-19
2021/12/24 03:52:14;;;;;;;15.80;5.60;;;;;;;-7.75;69.71;97830.70;101798;1313;61229;-20
2021/12/24 03:56:43;;;;;;;11.70;6.70;;;;;;;-6.97;69.59;97812.48;101901;1314;73374;-19
2021/12/24 03:59:22;;;;;;;8.50;5.30;;;;;;;-6.23;66.28;97817.77;101579;1317;73300;-20
2021/12/24 04:02:22;;;;;;;11.30;6.40;;;;;;;-6.30;66.01;97824.73;102123;1316;61164;-19
2021/12/24 04:05:20;;;;;;;5.90;3.60;;;;;;;-6.57;66.33;97822.55;101631;1320;61279;-20
2021/12/24 04:08:07;;;;;;;16.10;8.90;;;;;;;-6.88;67.08;97810.17;101671;1319;74585;-20
2021/12/24 04:11:02;;;;;;;9.50;5.80;;;;;;;-7.17;68.18;97809.02;101960;1315;76096;-19
2021/12/24 04:13:33;;;;;;;7.40;4.30;;;;;;;-7.39;69.18;97799.55;102060;1314;74433;-19
2021/12/24 04:16:02;;;;;;;7.90;5.40;;;;;;;-7.53;69.55;97797.90;99484;1314;1003708;-20
2021/12/24 04:26:37;;;;;;;7.90;4.30;;;;;;;-6.34;67.73;97765.27;101817;1313;73443;-20
2021/12/24 04:29:06;;;;;;;9.20;4.60;;;;;;;-6.07;66.26;97771.11;102107;1314;61242;-19
2021/12/24 04:31:53;;;;;;;9.10;5.10;;;;;;;-6.21;66.16;97775.63;102068;1313;62032;-19
2021/12/24 04:35:14;;;;;;;11.90;6.60;;;;;;;-6.63;67.27;97765.52;101888;1318;74553;-19
2021/12/24 04:51:42;;;;;;;7.10;3.90;;;;;;;-7.23;71.69;97740.73;102028;1316;76151;-19
2021/12/24 05:10:29;;;;;;;11.40;4.70;;;;;;;-7.54;71.87;97718.55;101829;1313;62788;-19
2021/12/24 05:12:57;;;;;;;10.00;4.40;;;;;;;-7.30;72.93;97710.04;102114;1313;61180;-19
2021/12/24 05:15:34;;;;;;;15.80;7.50;;;;;;;-6.62;71.29;97701.65;102102;1314;73512;-20
2021/12/24 05:18:48;;;;;;;12.20;6.00;;;;;;;-6.46;70.29;97685.94;102126;1315;75314;-19
2021/12/24 05:21:49;;;;;;;11.50;5.90;;;;;;;-6.72;70.94;97678.52;101487;1318;73714;-19
2021/12/24 05:24:20;;;;;;;13.20;8.00;;;;;;;-6.98;72.42;97681.73;101667;1315;61095;-20
2021/12/24 05:26:50;;;;;;;13.20;7.50;;;;;;;-7.19;72.96;97670.61;101679;1314;61848;-20
2021/12/24 05:29:18;;;;;;;19.50;8.50;;;;;;;-7.40;73.97;97669.20;101627;1320;75832;-20
2021/12/24 05:31:49;;;;;;;17.40;9.10;;;;;;;-7.43;74.65;97669.83;102114;1313;73574;-20
2021/12/24 05:34:18;;;;;;;10.80;5.50;;;;;;;-6.85;73.74;97665.46;101648;1318;73267;-19
2021/12/24 05:36:47;;;;;;;9.60;5.60;;;;;;;-6.56;72.38;97659.93;102094;1317;61201;-19
2021/12/24 05:39:17;;;;;;;11.10;5.40;;;;;;;-6.64;72.37;97656.34;101696;1315;61131;-20
2021/12/24 05:41:47;;;;;;;17.00;8.50;;;;;;;-6.85;72.88;97648.58;101959;1312;74832;-19
2021/12/24 05:44:17;;;;;;;12.90;7.30;;;;;;;-7.12;73.77;97643.36;101957;1312;76086;-19
2021/12/24 05:46:50;;;;;;;10.10;5.40;;;;;;;-7.36;75.03;97648.02;101924;1311;74487;-19
2021/12/24 05:49:34;;;;;;;13.70;8.60;;;;;;;-7.54;75.67;97650.27;102007;1312;61902;-20
2021/12/24 05:52:22;;;;;;;9.10;6.10;;;;;;;-7.14;75.50;97641.27;102251;1313;61227;-20
2021/12/24 05:55:00;;;;;;;15.10;7.80;;;;;;;-6.69;73.54;97634.70;102278;1314;75554;-20
2021/12/24 05:57:29;;;;;;;7.00;4.50;;;;;;;-6.67;73.34;97638.05;102298;1316;76145;-19
2021/12/24 05:59:57;;;;;;;13.70;8.40;;;;;;;-6.87;73.78;97632.10;102137;1319;74020;-19
2021/12/24 06:02:25;;;;;;;16.40;9.60;;;;;;;-7.12;74.48;97623.31;102258;1316;62238;-20
2021/12/24 06:04:53;;;;;;;16.10;9.70;;;;;;;-7.32;75.34;97625.98;102142;1314;61969;-20
2021/12/24 06:07:22;;;;;;;11.10;6.50;;;;;;;-7.41;76.18;97637.89;101990;1314;75545;-19
2021/12/24 06:09:50;;;;;;;14.40;6.40;;;;;;;-6.86;75.43;97635.95;102156;1313;75867;-20
2021/12/24 06:12:18;;;;;;;12.30;7.30;;;;;;;-6.43;73.29;97634.50;102119;1314;74462;-19
2021/12/24 06:14:53;;;;;;;17.50;8.70;;;;;;;-6.47;72.98;97628.55;102263;1316;61199;-20
2021/12/24 06:17:23;;;;;;;15.60;7.70;;;;;;;-6.70;73.65;97616.52;102260;1313;62122;-19
2021/12/24 06:19:51;;;;;;;12.60;7.00;;;;;;;-6.99;74.53;97610.06;102308;1313;75710;-19
2021/12/24 06:22:20;;;;;;;9.40;5.60;;;;;;;-7.20;75.16;97612.61;102275;1314;76021;-20
2021/12/24 06:24:48;;;;;;;11.30;5.30;;;;;;;-7.36;75.76;97615.66;102107;1313;72275;-19
2021/12/24 06:27:22;;;;;;;14.10;6.70;;;;;;;-7.11;76.19;97612.16;102023;1316;62778;-20
2021/12/24 06:29:51;;;;;;;11.20;5.90;;;;;;;-6.51;74.15;97619.73;102064;1313;62142;-20
2021/12/24 06:32:24;;;;;;;11.00;6.20;;;;;;;-6.39;73.36;97623.36;102270;1313;74044;-20
2021/12/24 06:34:52;;;;;;;14.30;7.50;;;;;;;-6.54;73.41;97614.11;102299;1316;75929;-19
2021/12/24 06:37:20;;;;;;;12.90;8.20;;;;;;;-6.82;73.68;97609.16;102263;1313;72447;-19
2021/12/24 06:39:49;;;;;;;12.70;7.60;;;;;;;-7.07;74.32;97610.83;102107;1314;61209;-19
2021/12/24 06:42:17;;;;;;;20.90;11.30;;;;;;;-7.27;75.25;97609.48;102192;1314;61425;-19
2021/12/24 06:44:45;;;;;;;14.30;7.70;;;;;;;-7.19;75.89;97602.80;102251;1312;74746;-19
2021/12/24 06:47:15;;;;;;;8.20;5.00;;;;;;;-6.67;74.42;97603.75;102176;1313;74973;-19
2021/12/24 06:49:43;;;;;;;7.70;4.10;;;;;;;-6.51;73.51;97594.75;101730;1317;73633;-20
2021/12/24 06:52:11;;;;;;;21.50;11.30;;;;;;;-6.59;73.61;97589.48;102027;1313;61138;-20
2021/12/24 06:54:40;;;;;;;8.20;5.20;;;;;;;-6.77;73.63;97588.90;102077;1313;61442;-19
2021/12/24 06:57:17;;;;;;;11.60;6.70;;;;;;;-7.02;74.54;97578.94;101928;1313;75912;-19
2021/12/24 06:59:46;;;;;;;12.40;6.00;;;;;;;-7.21;75.70;97573.31;101702;1317;76127;-19
2021/12/24 07:02:14;;;;;;;16.90;8.60;;;;;;;-6.88;75.53;97573.76;101624;1317;74691;-19
2021/12/24 07:04:43;;;;;;;9.00;5.50;;;;;;;-6.42;73.90;97579.23;101725;1313;61396;-20
2021/12/24 07:07:12;;;;;;;15.20;7.90;;;;;;;-6.32;73.31;97583.43;101917;1312;61130;-20
2021/12/24 07:09:44;;;;;;;19.40;10.80;;;;;;;-6.51;73.33;97575.14;101919;1312;74848;-19
2021/12/24 07:12:13;;;;;;;10.80;6.20;;;;;;;-6.78;73.87;97567.66;101960;1312;73906;-20
2021/12/24 07:14:42;;;;;;;10.80;6.50;;;;;;;-6.96;75.93;97562.89;101758;1317;72897;-20
2021/12/24 07:17:11;;;;;;;10.80;6.40;;;;;;;-7.13;75.78;97543.06;101620;1317;61248;-20
2021/12/24 07:19:39;;;;;;;18.70;10.00;;;;;;;-6.82;75.84;97542.31;102029;1314;62403;-20
2021/12/24 07:22:07;;;;;;;14.30;7.00;;;;;;;-6.40;73.94;97528.84;102156;1313;74150;-19
2021/12/24 07:24:36;;;;;;;13.10;6.90;;;;;;;-6.36;73.48;97524.66;102057;1316;76457;-19
2021/12/24 07:27:05;;;;;;;12.20;7.40;;;;;;;-6.52;73.78;97512.90;101699;1313;73372;-19
2021/12/24 07:29:33;;;;;;;19.90;8.20;;;;;;;-6.74;74.33;97505.23;101690;1313;236810;-20
2021/12/24 07:32:03;;;;;;;13.70;6.30;;;;;;;-6.86;74.65;97507.04;101031;1314;1002975;-19
2021/12/24 07:34:32;;;;;;;9.80;5.60;;;;;;;-6.68;75.32;97506.54;101746;1313;75636;-19
2021/12/24 07:37:00;;;;;;;13.50;7.80;;;;;;;-6.20;73.81;97501.91;101956;1314;75144;-20
2021/12/24 07:39:28;;;;;;;11.40;6.70;;;;;;;-6.06;73.04;97497.48;102025;1316;73368;-20
2021/12/24 07:41:57;;;;;;;14.10;7.90;;;;;;;-6.18;73.22;97503.86;102007;1317;61240;-19
2021/12/24 07:44:27;;;;;;;13.00;9.40;;;;;;;-6.36;73.30;97500.97;101915;1312;61144;-20
2021/12/24 07:46:59;;;;;;;11.80;7.60;;;;;;;-6.60;73.94;97488.40;102113;1312;74172;-18
2021/12/24 07:52:08;;;;;;;14.40;7.50;;;;;;;-6.36;74.79;97493.73;102016;1314;74531;-17
2021/12/24 07:54:43;;;;;;;13.40;7.30;;;;;;;-5.77;72.98;97487.67;101699;1313;61228;-18
2021/12/24 07:57:12;;;;;;;11.20;6.80;;;;;;;-5.73;72.10;97478.74;101671;1315;61249;-18
2021/12/24 07:59:42;;;;;;;23.40;10.00;;;;;;;-5.88;72.20;97476.66;101710;1316;74133;-20
2021/12/24 08:02:14;;;;;;;13.80;8.40;;;;;;;-6.12;72.74;97472.86;101789;1316;75211;-17
2021/12/24 08:04:44;;;;;;;20.00;10.90;;;;;;;-6.37;73.22;97476.71;101747;1316;74479;-19
2021/12/24 08:07:15;;;;;;;15.80;8.90;;;;;;;-6.54;74.31;97480.03;101662;1319;61306;-20
2021/12/24 08:09:44;;;;;;;16.80;9.60;;;;;;;-6.30;74.45;97480.30;101676;1319;61137;-18
2021/12/24 08:12:12;;;;;;;25.10;12.40;;;;;;;-5.71;72.82;97481.04;101930;1312;75895;-19
2021/12/24 08:14:41;;;;;;;15.30;7.10;;;;;;;-5.62;72.03;97471.38;102042;1312;74445;-18
2021/12/24 08:17:10;;;;;;;15.30;9.10;;;;;;;-5.76;72.06;97464.85;101716;1317;74399;-17
2021/12/24 08:19:39;;;;;;;18.50;10.60;;;;;;;-6.00;72.64;97463.77;102152;1313;61345;-18
2021/12/24 08:22:07;;;;;;;17.60;9.60;;;;;;;-6.18;73.17;97463.98;102039;1313;61182;-19
2021/12/24 08:24:37;;;;;;;14.60;6.80;;;;;;;-6.28;73.71;97457.11;102017;1314;74501;-17
2021/12/24 08:27:06;;;;;;;14.30;8.80;;;;;;;-6.10;74.16;97447.95;101832;1313;76116;-19
2021/12/24 08:29:35;;;;;;;18.20;9.30;;;;;;;-5.50;72.40;97450.94;102029;1312;73409;-17
2021/12/24 08:32:04;;;;;;;14.40;7.50;;;;;;;-5.38;70.86;97446.05;102083;1316;61295;-17
2021/12/24 08:34:33;;;;;;;10.60;6.30;;;;;;;-5.56;71.55;97442.07;101819;1316;61237;-18
2021/12/24 08:37:02;;;;;;;11.50;7.60;;;;;;;-5.72;72.25;97435.77;102042;1315;75670;-18
2021/12/24 08:39:31;;;;;;;14.00;7.90;;;;;;;-5.85;72.65;97429.71;102135;1313;74969;-18
2021/12/24 08:41:59;;;;;;;16.30;7.80;;;;;;;-6.00;73.21;97428.98;102034;1314;72266;-18
2021/12/24 08:44:30;;;;;;;18.80;10.00;;;;;;;-6.13;73.63;97427.10;101945;1312;62610;-18
2021/12/24 08:47:04;;;;;;;14.50;7.90;;;;;;;-5.64;72.72;97416.16;101716;1312;61099;-19
2021/12/24 08:49:32;;;;;;;;;;;;;;;-5.32;71.36;97417.02;101826;1314;74613;-19
2021/12/24 08:52:02;;;;;;;14.00;7.90;;;;;;;-5.42;70.75;97412.19;101974;1317;73566;-19
2021/12/24 08:54:30;;;;;;;9.70;6.40;;;;;;;-5.60;71.34;97389.95;101975;1313;73437;-18
2021/12/24 08:56:59;;;;;;;15.90;7.70;;;;;;;-5.75;72.27;97389.23;101794;1314;61199;-18
2021/12/24 08:59:27;;;;;;;15.10;9.60;;;;;;;-5.94;72.74;97382.06;101809;1314;61820;-19
2021/12/24 09:01:58;;;;;;;12.20;6.50;;;;;;;-6.04;73.21;97375.59;101675;1316;74800;-19
2021/12/24 09:04:27;;;;;;;11.00;6.90;;;;;;;-5.49;72.84;97373.77;101755;1314;76115;-18
2021/12/24 09:06:55;;;;;;;10.90;6.70;;;;;;;-5.01;71.02;97361.86;101889;1314;74462;-19
2021/12/24 09:09:23;;;;;;;18.20;9.00;;;;;;;-5.06;70.15;97360.40;101735;1315;61196;-18
2021/12/24 09:11:52;;;;;;;8.00;4.70;;;;;;;-5.27;71.08;97361.48;102020;1312;61163;-19
2021/12/24 09:14:21;;;;;;;12.10;6.60;;;;;;;-5.31;70.97;97352.19;101961;1312;75583;-18
2021/12/24 09:16:54;;;;;;;11.50;7.10;;;;;;;-5.45;71.63;97339.95;101690;1314;75782;-19
2021/12/24 09:19:27;;;;;;;13.90;8.20;;;;;;;-5.62;72.22;97339.32;101991;1314;72978;-18
2021/12/24 09:21:57;;;;;;;14.30;8.70;;;;;;;-5.58;72.78;97323.59;102046;1314;62617;-18
2021/12/24 09:24:26;;;;;;;11.70;7.00;;;;;;;-4.95;71.37;97317.38;102087;1312;61435;-19
2021/12/24 09:26:57;;;;;;;21.30;10.50;;;;;;;-4.71;69.94;97305.81;101791;1314;75749;-18
2021/12/24 09:29:26;;;;;;;22.10;11.80;;;;;;;-4.73;69.90;97304.52;102045;1312;74038;-19
2021/12/24 09:31:54;;;;;;;12.00;6.00;;;;;;;-4.93;69.98;97305.48;102066;1313;73524;-19
2021/12/24 09:34:23;;;;;;;11.00;6.20;;;;;;;-5.10;70.74;97297.46;101930;1313;61103;-19
2021/12/24 09:36:52;;;;;;;13.20;8.20;;;;;;;-5.32;71.61;97298.61;102079;1312;61969;-19
2021/12/24 09:39:20;;;;;;;21.00;11.80;;;;;;;-5.49;72.16;97295.78;102107;1312;75581;-18
2021/12/24 09:41:48;;;;;;;15.30;8.30;;;;;;;-5.41;72.64;97293.06;102054;1313;76224;-19
2021/12/24 09:44:17;;;;;;;16.10;8.10;;;;;;;-4.82;71.09;97288.02;101961;1316;73321;-19
2021/12/24 09:46:45;;;;;;;15.00;8.10;;;;;;;-4.61;70.08;97273.15;101941;1312;61179;-19
2021/12/24 09:49:14;;;;;;;10.50;6.50;;;;;;;-4.67;69.90;97269.88;102011;1314;61185;-19
2021/12/24 09:51:45;;;;;;;14.10;7.40;;;;;;;-4.85;70.09;97264.31;102256;1312;75983;-18
2021/12/24 09:54:16;;;;;;;11.30;6.50;;;;;;;-5.04;70.56;97248.92;101979;1313;75034;-18
2021/12/24 09:56:44;;;;;;;19.90;9.90;;;;;;;-5.22;71.56;97254.29;101739;1315;73474;-19
2021/12/24 09:59:13;;;;;;;15.50;9.00;;;;;;;-5.41;72.71;97242.86;102273;1312;61980;-18
2021/12/24 10:01:43;;;;;;;12.40;7.40;;;;;;;-4.98;71.61;97247.45;102197;1312;61208;-19
2021/12/24 10:04:14;;;;;;;14.60;8.20;;;;;;;-4.44;70.56;97255.71;101863;1316;75280;-19
2021/12/24 10:06:55;;;;;;;16.50;9.80;;;;;;;-4.37;69.32;97251.68;101697;1315;75187;-18
2021/12/24 10:09:31;;;;;;;14.10;8.30;;;;;;;-4.59;70.24;97255.08;101710;1316;73469;-18
2021/12/24 10:12:02;;;;;;;23.60;10.30;;;;;;;-4.77;70.92;97243.95;101760;1315;61136;-19
2021/12/24 10:14:39;;;;;;;7.60;5.70;;;;;;;-4.99;71.20;97231.62;101705;1314;61199;-19
2021/12/24 10:17:34;;;;;;;11.40;7.00;;;;;;;-5.19;72.20;97218.80;101769;1314;75803;-19
2021/12/24 10:20:14;;;;;;;15.70;7.80;;;;;;;-5.00;73.17;97219.45;101842;1314;74867;-18
2021/12/24 10:22:44;;;;;;;12.80;8.10;;;;;;;-4.28;71.13;97218.36;101738;1317;74278;-20
2021/12/24 10:25:13;;;;;;;6.60;4.90;;;;;;;-4.12;70.29;97219.56;101865;1313;61223;-18
2021/12/24 10:27:43;;;;;;;19.30;8.60;;;;;;;-4.35;70.29;97220.74;102015;1313;62223;-18
2021/12/24 10:30:32;;;;;;;18.10;10.20;;;;;;;-4.67;71.54;97214.82;101737;1316;74149;-18
2021/12/24 10:33:10;;;;;;;10.90;6.80;;;;;;;-4.77;72.40;97210.23;101911;1313;75899;-19
2021/12/24 10:35:39;;;;;;;13.30;6.80;;;;;;;-4.88;72.50;97204.86;101790;1315;74234;-18
2021/12/24 10:38:17;;;;;;;6.20;4.20;;;;;;;-4.95;73.55;97213.46;101980;1313;62919;-18
2021/12/24 10:40:49;;;;;;;14.70;7.80;;;;;;;-4.49;72.76;97210.92;101715;1316;61204;-19
2021/12/24 10:43:28;;;;;;;14.70;8.00;;;;;;;-4.37;71.74;97203.36;101673;1316;75756;-18
2021/12/24 10:46:17;;;;;;;19.40;9.80;;;;;;;-4.37;71.34;97189.95;101794;1314;75938;-19
2021/12/24 10:49:03;;;;;;;7.70;4.80;;;;;;;-4.67;72.41;97189.44;101808;1314;74607;-19
2021/12/24 10:51:54;;;;;;;12.00;5.90;;;;;;;-4.89;73.06;97184.08;101732;1315;61260;-18
2021/12/24 10:54:27;;;;;;;13.00;6.50;;;;;;;-5.09;73.92;97175.40;101913;1315;61077;-19
2021/12/24 10:57:16;;;;;;;12.40;6.30;;;;;;;-4.84;74.12;97167.04;102054;1313;75371;-19
2021/12/24 10:59:45;;;;;;;13.20;8.60;;;;;;;-4.21;72.26;97167.69;101695;1315;74638;-19
2021/12/24 11:02:13;;;;;;;19.30;10.50;;;;;;;-4.27;71.95;97171.37;101918;1315;74507;-19
2021/12/24 11:04:42;;;;;;;13.70;7.40;;;;;;;-4.49;72.60;97170.92;102004;1312;61194;-18
2021/12/24 11:07:32;;;;;;;8.40;5.60;;;;;;;-4.68;73.28;97166.45;101953;1313;61163;-19
2021/12/24 11:10:11;;;;;;;13.10;8.30;;;;;;;-4.95;74.07;97158.98;102025;1314;74489;-19
2021/12/24 11:12:54;;;;;;;14.30;7.70;;;;;;;-5.10;75.94;97151.59;101729;1315;76383;-19
2021/12/24 11:15:29;;;;;;;8.10;5.50;;;;;;;-4.47;74.47;97147.30;101744;1314;74229;-19
2021/12/24 11:18:05;;;;;;;9.10;5.90;;;;;;;-4.10;72.88;97149.46;101853;1316;61045;-19
2021/12/24 11:20:34;;;;;;;8.40;4.50;;;;;;;-4.24;72.80;97140.18;101809;1314;61862;-19
2021/12/24 11:23:05;;;;;;;12.00;7.00;;;;;;;-4.41;73.60;97132.42;101789;1314;74738;-19
2021/12/24 11:25:54;;;;;;;12.20;7.00;;;;;;;-4.66;74.21;97126.56;101726;1315;73565;-19
2021/12/24 11:28:24;;;;;;;6.50;5.00;;;;;;;-4.88;75.35;97127.17;101817;1320;74448;-18
2021/12/24 11:30:58;;;;;;;6.80;4.80;;;;;;;-4.92;76.40;97124.95;101750;1312;61603;-19
2021/12/24 11:33:28;;;;;;;12.70;6.90;;;;;;;-4.43;75.25;97118.77;101883;1316;62200;-19
2021/12/24 11:35:58;;;;;;;16.50;6.00;;;;;;;-4.16;74.60;97120.81;101705;1315;72932;-19
2021/12/24 11:38:29;;;;;;;17.00;10.30;;;;;;;-4.18;74.43;97116.33;101644;1313;75141;-19
2021/12/24 11:40:58;;;;;;;19.50;10.50;;;;;;;-4.61;76.08;97115.60;101714;1319;71535;-19
2021/12/24 11:43:29;;;;;;;12.40;7.50;;;;;;;-4.72;76.48;97115.36;101665;1314;61136;-19
2021/12/24 11:45:59;;;;;;;10.20;4.80;;;;;;;-4.54;77.17;97111.05;101747;1313;61515;-19
2021/12/24 11:48:31;;;;;;;13.70;7.60;;;;;;;-4.15;75.56;97112.44;101785;1312;75572;-19
2021/12/24 11:51:02;;;;;;;7.70;5.60;;;;;;;-4.07;75.08;97102.67;101727;1316;75606;-19
2021/12/24 11:53:30;;;;;;;12.60;7.50;;;;;;;-4.19;75.68;97090.61;102024;1316;73415;-19
2021/12/24 11:56:07;;;;;;;18.30;10.70;;;;;;;-4.33;76.23;97085.60;101927;1314;61245;-19
2021/12/24 11:58:50;;;;;;;15.80;8.10;;;;;;;-4.62;77.52;97073.50;101794;1314;61892;-19
2021/12/24 12:01:19;;;;;;;15.40;7.70;;;;;;;-4.29;77.08;97075.04;101731;1314;72965;-19
2021/12/24 12:03:52;;;;;;;12.30;8.20;;;;;;;-3.96;76.08;97072.11;101710;1315;75928;-19
2021/12/24 12:06:23;;;;;;;17.80;7.00;;;;;;;-4.12;75.87;97062.80;101767;1316;72999;-19
2021/12/24 12:08:53;;;;;;;11.40;6.70;;;;;;;-4.23;76.62;97051.70;101879;1313;61092;-19
2021/12/24 12:11:29;;;;;;;18.20;10.90;;;;;;;-4.39;77.21;97044.69;102101;1313;61259;-19
2021/12/24 12:14:17;;;;;;;21.50;10.60;;;;;;;-4.13;77.03;97048.95;102017;1314;75758;-19
2021/12/24 12:16:50;;;;;;;13.00;8.50;;;;;;;-3.81;75.79;97046.91;102257;1312;75116;-19
2021/12/24 12:19:37;;;;;;;12.40;5.80;;;;;;;-3.87;75.66;97044.00;101849;1313;73308;-19
2021/12/24 12:22:16;;;;;;;11.90;7.90;;;;;;;-4.12;76.16;97050.56;102059;1319;61204;-19
2021/12/24 12:24:58;;;;;;;13.10;8.20;;;;;;;-4.32;77.40;97044.52;101839;1313;61289;-19
2021/12/24 12:27:45;;;;;;;13.30;8.70;;;;;;;-4.05;77.23;97034.27;102213;1314;74402;-19
2021/12/24 12:30:17;;;;;;;17.60;9.60;;;;;;;-3.69;75.60;97039.63;102140;1316;74435;-19
2021/12/24 12:33:12;;;;;;;6.90;4.70;;;;;;;-3.79;75.71;97035.77;102221;1313;74226;-19
2021/12/24 12:35:42;;;;;;;15.20;8.60;;;;;;;-4.01;76.17;97042.69;102078;1313;61092;-19
2021/12/24 12:38:24;;;;;;;13.40;6.50;;;;;;;-4.20;77.09;97049.98;101850;1316;62168;-19
2021/12/24 12:40:53;;;;;;;11.90;6.20;;;;;;;-4.01;77.38;97052.70;101707;1315;73857;-19
2021/12/24 12:43:21;;;;;;;11.20;6.90;;;;;;;-3.52;75.85;97056.98;101995;1313;75295;-19
2021/12/24 12:45:52;;;;;;;15.90;9.80;;;;;;;-3.58;75.81;97064.13;101749;1315;74537;-19
2021/12/24 12:48:26;;;;;;;12.90;8.10;;;;;;;-3.69;76.18;97056.41;101725;1313;61282;-19
2021/12/24 12:50:58;;;;;;;5.50;3.90;;;;;;;-3.86;76.38;97049.56;101830;1314;61129;-19
2021/12/24 12:53:33;;;;;;;10.40;5.10;;;;;;;-4.09;77.71;97058.23;101703;1315;74335;-19
2021/12/24 12:56:11;;;;;;;11.80;6.90;;;;;;;-3.70;77.39;97052.24;101752;1317;76321;-19
2021/12/24 12:59:03;;;;;;;12.20;6.10;;;;;;;-3.27;75.83;97042.33;101835;1314;72883;-19
2021/12/24 13:01:33;;;;;;;11.00;6.30;;;;;;;-3.30;75.83;97041.51;101626;1312;61616;-19
2021/12/24 13:04:03;;;;;;;8.50;5.30;;;;;;;-3.40;76.20;97039.90;101788;1316;62135;-19
2021/12/24 13:06:36;;;;;;;9.40;5.80;;;;;;;-3.59;76.51;97037.91;101890;1313;74739;-19
2021/12/24 13:09:06;;;;;;;5.80;3.90;;;;;;;-3.78;77.56;97040.42;101720;1316;75244;-19
2021/12/24 13:11:37;;;;;;;12.90;6.20;;;;;;;-3.49;77.41;97036.60;101911;1314;73467;-19
2021/12/24 13:14:06;;;;;;;8.10;5.10;;;;;;;-2.93;75.72;97033.92;101761;1315;61463;-19
2021/12/24 13:16:39;;;;;;;4.90;4.00;;;;;;;-3.11;76.03;97027.88;101921;1313;61560;-20
2021/12/24 13:24:51;;;;;;;19.90;9.50;;;;;;;-3.76;78.92;97024.39;102154;1314;74510;-19
2021/12/24 13:27:28;;;;;;;14.70;7.30;;;;;;;-3.55;78.64;97033.38;101657;1315;61234;-19
2021/12/24 13:30:31;;;;;;;11.30;6.50;;;;;;;-3.18;77.64;97031.52;101736;1313;61167;-19
2021/12/24 13:33:02;;;;;;;14.20;7.40;;;;;;;-3.39;78.12;97028.61;101755;1316;74509;-19
2021/12/24 13:35:44;;;;;;;10.90;6.30;;;;;;;-3.53;78.52;97022.77;101713;1315;76067;-19
2021/12/24 13:38:17;;;;;;;21.40;11.70;;;;;;;-3.71;79.36;97025.45;101889;1316;74507;-19
2021/12/24 13:40:46;;;;;;;10.40;7.20;;;;;;;-3.77;80.81;97022.91;101932;1313;61085;-19